sensor_id;sensor_type;location;lat;lon;timestamp;P1;durP1;ratioP1;P2;durP2;ratioP2
4049;SDS011;2039;50.894;6.888;2024-03-02T00:02:24;15.10;;;1.75;;
4049;SDS011;2039;50.894;6.888;2024-03-02T00:04:50;16.02;;;2.42;;
4049;SDS011;2039;50.894;6.888;2024-03-02T00:07:19;14.63;;;1.90;;
4049;SDS011;2039;50.894;6.888;2024-03-02T00:09:45;14.77;;;2.30;;
4049;SDS011;2039;50.894;6.888;2024-03-02T00:12:11;18.40;;;2.83;;
4049;SDS011;2039;50.894;6.888;2024-03-02T00:14:40;14.80;;;2.10;;
4049;SDS011;2039;50.894;6.888;2024-03-02T00:17:08;15.80;;;2.30;;
4049;SDS011;2039;50.894;6.888;2024-03-02T00:19:49;15.50;;;2.20;;
4049;SDS011;2039;50.894;6.888;2024-03-02T00:22:15;16.40;;;2.50;;
4049;SDS011;2039;50.894;6.888;2024-03-02T00:24:41;15.68;;;2.30;;
4049;SDS011;2039;50.894;6.888;2024-03-02T00:27:07;16.10;;;2.70;;
4049;SDS011;2039;50.894;6.888;2024-03-02T00:29:36;15.05;;;2.38;;
4049;SDS011;2039;50.894;6.888;2024-03-02T00:32:02;15.77;;;2.40;;
4049;SDS011;2039;50.894;6.888;2024-03-02T00:34:30;16.00;;;2.40;;
4049;SDS011;2039;50.894;6.888;2024-03-02T00:36:59;14.30;;;1.97;;
4049;SDS011;2039;50.894;6.888;2024-03-02T00:39:25;14.88;;;1.80;;
4049;SDS011;2039;50.894;6.888;2024-03-02T00:41:50;14.80;;;2.10;;
4049;SDS011;2039;50.894;6.888;2024-03-02T00:44:16;15.47;;;2.63;;
4049;SDS011;2039;50.894;6.888;2024-03-02T00:46:48;15.07;;;2.30;;
4049;SDS011;2039;50.894;6.888;2024-03-02T00:51:47;15.40;;;2.20;;
4049;SDS011;2039;50.894;6.888;2024-03-02T00:54:14;15.02;;;2.22;;
4049;SDS011;2039;50.894;6.888;2024-03-02T00:56:44;15.40;;;2.30;;
4049;SDS011;2039;50.894;6.888;2024-03-02T00:59:10;16.00;;;1.80;;
4049;SDS011;2039;50.894;6.888;2024-03-02T01:01:38;16.27;;;2.28;;
4049;SDS011;2039;50.894;6.888;2024-03-02T01:04:04;15.03;;;1.90;;
4049;SDS011;2039;50.894;6.888;2024-03-02T01:06:30;16.53;;;2.00;;
4049;SDS011;2039;50.894;6.888;2024-03-02T01:08:56;14.60;;;2.00;;
4049;SDS011;2039;50.894;6.888;2024-03-02T01:11:21;17.67;;;2.60;;
4049;SDS011;2039;50.894;6.888;2024-03-02T01:13:47;14.53;;;2.00;;
4049;SDS011;2039;50.894;6.888;2024-03-02T01:16:13;14.60;;;1.90;;
4049;SDS011;2039;50.894;6.888;2024-03-02T01:18:40;15.00;;;1.90;;
4049;SDS011;2039;50.894;6.888;2024-03-02T01:21:06;14.30;;;2.00;;
4049;SDS011;2039;50.894;6.888;2024-03-02T01:23:35;14.70;;;2.20;;
4049;SDS011;2039;50.894;6.888;2024-03-02T01:26:01;16.50;;;2.05;;
4049;SDS011;2039;50.894;6.888;2024-03-02T01:28:27;15.20;;;1.90;;
4049;SDS011;2039;50.894;6.888;2024-03-02T01:30:52;15.77;;;2.40;;
4049;SDS011;2039;50.894;6.888;2024-03-02T01:33:19;15.17;;;2.30;;
4049;SDS011;2039;50.894;6.888;2024-03-02T01:35:45;15.25;;;2.17;;
4049;SDS011;2039;50.894;6.888;2024-03-02T01:38:10;14.23;;;1.50;;
4049;SDS011;2039;50.894;6.888;2024-03-02T01:40:36;15.33;;;2.03;;
4049;SDS011;2039;50.894;6.888;2024-03-02T01:43:06;14.00;;;1.42;;
4049;SDS011;2039;50.894;6.888;2024-03-02T01:45:32;14.77;;;2.00;;
4049;SDS011;2039;50.894;6.888;2024-03-02T01:47:58;14.57;;;2.08;;
4049;SDS011;2039;50.894;6.888;2024-03-02T01:50:28;14.77;;;2.20;;
4049;SDS011;2039;50.894;6.888;2024-03-02T01:52:55;14.82;;;1.80;;
4049;SDS011;2039;50.894;6.888;2024-03-02T01:55:21;14.60;;;1.60;;
4049;SDS011;2039;50.894;6.888;2024-03-02T01:57:47;14.83;;;2.07;;
4049;SDS011;2039;50.894;6.888;2024-03-02T02:00:15;14.10;;;1.58;;
4049;SDS011;2039;50.894;6.888;2024-03-02T02:02:41;14.67;;;1.80;;
4049;SDS011;2039;50.894;6.888;2024-03-02T02:05:08;17.60;;;2.05;;
4049;SDS011;2039;50.894;6.888;2024-03-02T02:07:34;14.80;;;2.13;;
4049;SDS011;2039;50.894;6.888;2024-03-02T02:10:00;14.45;;;1.90;;
4049;SDS011;2039;50.894;6.888;2024-03-02T02:12:26;14.60;;;1.80;;
4049;SDS011;2039;50.894;6.888;2024-03-02T02:14:52;18.53;;;1.90;;
4049;SDS011;2039;50.894;6.888;2024-03-02T02:17:18;14.70;;;1.50;;
4049;SDS011;2039;50.894;6.888;2024-03-02T02:19:43;14.50;;;1.70;;
4049;SDS011;2039;50.894;6.888;2024-03-02T02:22:09;14.33;;;1.60;;
4049;SDS011;2039;50.894;6.888;2024-03-02T02:24:35;13.90;;;1.52;;
4049;SDS011;2039;50.894;6.888;2024-03-02T02:27:04;14.30;;;1.65;;
4049;SDS011;2039;50.894;6.888;2024-03-02T02:29:30;17.93;;;2.20;;
4049;SDS011;2039;50.894;6.888;2024-03-02T02:31:55;13.80;;;1.37;;
4049;SDS011;2039;50.894;6.888;2024-03-02T02:34:21;14.47;;;2.03;;
4049;SDS011;2039;50.894;6.888;2024-03-02T02:36:47;14.17;;;1.53;;
4049;SDS011;2039;50.894;6.888;2024-03-02T02:39:16;14.97;;;1.90;;
4049;SDS011;2039;50.894;6.888;2024-03-02T02:41:45;14.88;;;1.67;;
4049;SDS011;2039;50.894;6.888;2024-03-02T02:44:10;14.00;;;1.47;;
4049;SDS011;2039;50.894;6.888;2024-03-02T02:46:39;14.10;;;1.40;;
4049;SDS011;2039;50.894;6.888;2024-03-02T02:49:05;14.32;;;1.60;;
4049;SDS011;2039;50.894;6.888;2024-03-02T02:51:31;15.20;;;1.50;;
4049;SDS011;2039;50.894;6.888;2024-03-02T02:53:57;15.60;;;1.80;;
4049;SDS011;2039;50.894;6.888;2024-03-02T02:56:23;14.00;;;1.43;;
4049;SDS011;2039;50.894;6.888;2024-03-02T02:58:48;15.10;;;2.30;;
4049;SDS011;2039;50.894;6.888;2024-03-02T03:01:15;14.77;;;1.63;;
4049;SDS011;2039;50.894;6.888;2024-03-02T03:03:44;15.75;;;1.70;;
4049;SDS011;2039;50.894;6.888;2024-03-02T03:06:10;14.40;;;1.88;;
4049;SDS011;2039;50.894;6.888;2024-03-02T03:08:36;14.05;;;1.33;;
4049;SDS011;2039;50.894;6.888;2024-03-02T03:11:05;16.40;;;1.98;;
4049;SDS011;2039;50.894;6.888;2024-03-02T03:13:31;13.93;;;1.40;;
4049;SDS011;2039;50.894;6.888;2024-03-02T03:15:57;13.75;;;1.35;;
4049;SDS011;2039;50.894;6.888;2024-03-02T03:18:23;15.47;;;1.67;;
4049;SDS011;2039;50.894;6.888;2024-03-02T03:20:49;15.77;;;1.50;;
4049;SDS011;2039;50.894;6.888;2024-03-02T03:23:15;14.50;;;1.43;;
4049;SDS011;2039;50.894;6.888;2024-03-02T03:25:41;16.58;;;1.45;;
4049;SDS011;2039;50.894;6.888;2024-03-02T03:28:08;14.75;;;1.65;;
4049;SDS011;2039;50.894;6.888;2024-03-02T03:30:37;15.95;;;1.75;;
4049;SDS011;2039;50.894;6.888;2024-03-02T03:33:03;14.60;;;1.50;;
4049;SDS011;2039;50.894;6.888;2024-03-02T03:35:32;14.43;;;1.73;;
4049;SDS011;2039;50.894;6.888;2024-03-02T03:37:58;14.53;;;1.80;;
4049;SDS011;2039;50.894;6.888;2024-03-02T03:40:24;14.90;;;2.10;;
4049;SDS011;2039;50.894;6.888;2024-03-02T03:42:50;14.67;;;2.03;;
4049;SDS011;2039;50.894;6.888;2024-03-02T03:45:15;15.77;;;1.80;;
4049;SDS011;2039;50.894;6.888;2024-03-02T03:47:41;16.10;;;2.05;;
4049;SDS011;2039;50.894;6.888;2024-03-02T03:50:07;14.57;;;1.83;;
4049;SDS011;2039;50.894;6.888;2024-03-02T03:52:33;14.73;;;2.03;;
4049;SDS011;2039;50.894;6.888;2024-03-02T03:54:59;14.67;;;2.43;;
4049;SDS011;2039;50.894;6.888;2024-03-02T03:57:25;18.20;;;2.08;;
4049;SDS011;2039;50.894;6.888;2024-03-02T03:59:51;17.63;;;2.53;;
4049;SDS011;2039;50.894;6.888;2024-03-02T04:02:17;15.02;;;2.22;;
4049;SDS011;2039;50.894;6.888;2024-03-02T04:04:43;16.50;;;2.50;;
4049;SDS011;2039;50.894;6.888;2024-03-02T04:07:09;14.90;;;1.83;;
4049;SDS011;2039;50.894;6.888;2024-03-02T04:09:35;17.40;;;2.20;;
4049;SDS011;2039;50.894;6.888;2024-03-02T04:12:01;14.50;;;1.70;;
4049;SDS011;2039;50.894;6.888;2024-03-02T04:14:26;14.70;;;1.97;;
4049;SDS011;2039;50.894;6.888;2024-03-02T04:16:52;15.80;;;1.63;;
4049;SDS011;2039;50.894;6.888;2024-03-02T04:19:18;16.23;;;2.30;;
4049;SDS011;2039;50.894;6.888;2024-03-02T04:21:43;15.60;;;1.50;;
4049;SDS011;2039;50.894;6.888;2024-03-02T04:24:10;14.27;;;1.70;;
4049;SDS011;2039;50.894;6.888;2024-03-02T04:26:36;14.40;;;1.60;;
4049;SDS011;2039;50.894;6.888;2024-03-02T04:29:01;14.80;;;1.53;;
4049;SDS011;2039;50.894;6.888;2024-03-02T04:31:27;14.10;;;1.70;;
4049;SDS011;2039;50.894;6.888;2024-03-02T04:33:52;14.00;;;1.47;;
4049;SDS011;2039;50.894;6.888;2024-03-02T04:36:19;14.52;;;1.90;;
4049;SDS011;2039;50.894;6.888;2024-03-02T04:38:44;16.87;;;2.03;;
4049;SDS011;2039;50.894;6.888;2024-03-02T04:41:10;14.50;;;1.83;;
4049;SDS011;2039;50.894;6.888;2024-03-02T04:43:36;14.97;;;2.47;;
4049;SDS011;2039;50.894;6.888;2024-03-02T04:46:01;14.80;;;2.13;;
4049;SDS011;2039;50.894;6.888;2024-03-02T04:48:27;15.13;;;2.33;;
4049;SDS011;2039;50.894;6.888;2024-03-02T04:50:53;15.00;;;1.90;;
4049;SDS011;2039;50.894;6.888;2024-03-02T04:53:19;15.13;;;2.33;;
4049;SDS011;2039;50.894;6.888;2024-03-02T04:55:44;15.40;;;2.70;;
4049;SDS011;2039;50.894;6.888;2024-03-02T04:58:23;31.55;;;3.08;;
4049;SDS011;2039;50.894;6.888;2024-03-02T05:00:48;17.50;;;2.30;;
4049;SDS011;2039;50.894;6.888;2024-03-02T05:03:14;15.80;;;2.40;;
4049;SDS011;2039;50.894;6.888;2024-03-02T05:05:40;17.73;;;2.70;;
4049;SDS011;2039;50.894;6.888;2024-03-02T05:08:05;15.33;;;2.10;;
4049;SDS011;2039;50.894;6.888;2024-03-02T05:10:31;15.73;;;2.45;;
4049;SDS011;2039;50.894;6.888;2024-03-02T05:12:57;16.80;;;2.10;;
4049;SDS011;2039;50.894;6.888;2024-03-02T05:15:24;15.02;;;2.00;;
4049;SDS011;2039;50.894;6.888;2024-03-02T05:17:50;16.60;;;2.20;;
4049;SDS011;2039;50.894;6.888;2024-03-02T05:20:16;14.35;;;1.85;;
4049;SDS011;2039;50.894;6.888;2024-03-02T05:22:42;14.40;;;1.83;;
4049;SDS011;2039;50.894;6.888;2024-03-02T05:25:08;15.30;;;1.90;;
4049;SDS011;2039;50.894;6.888;2024-03-02T05:27:37;15.73;;;2.13;;
4049;SDS011;2039;50.894;6.888;2024-03-02T05:30:03;16.77;;;2.03;;
4049;SDS011;2039;50.894;6.888;2024-03-02T05:32:31;14.93;;;1.92;;
4049;SDS011;2039;50.894;6.888;2024-03-02T05:34:59;19.25;;;2.05;;
4049;SDS011;2039;50.894;6.888;2024-03-02T05:37:25;14.60;;;1.80;;
4049;SDS011;2039;50.894;6.888;2024-03-02T05:39:51;13.90;;;1.60;;
4049;SDS011;2039;50.894;6.888;2024-03-02T05:42:16;18.87;;;1.70;;
4049;SDS011;2039;50.894;6.888;2024-03-02T05:44:42;16.13;;;2.00;;
4049;SDS011;2039;50.894;6.888;2024-03-02T05:47:08;14.27;;;1.90;;
4049;SDS011;2039;50.894;6.888;2024-03-02T05:49:34;15.13;;;2.00;;
4049;SDS011;2039;50.894;6.888;2024-03-02T05:52:00;15.43;;;2.25;;
4049;SDS011;2039;50.894;6.888;2024-03-02T05:54:25;14.33;;;1.80;;
4049;SDS011;2039;50.894;6.888;2024-03-02T05:56:51;15.30;;;1.87;;
4049;SDS011;2039;50.894;6.888;2024-03-02T05:59:17;16.27;;;1.60;;
4049;SDS011;2039;50.894;6.888;2024-03-02T06:01:43;14.93;;;2.00;;
4049;SDS011;2039;50.894;6.888;2024-03-02T06:04:09;14.80;;;1.95;;
4049;SDS011;2039;50.894;6.888;2024-03-02T06:06:38;14.40;;;1.70;;
4049;SDS011;2039;50.894;6.888;2024-03-02T06:09:05;15.40;;;1.80;;
4049;SDS011;2039;50.894;6.888;2024-03-02T06:11:37;14.50;;;1.80;;
4049;SDS011;2039;50.894;6.888;2024-03-02T06:14:04;15.00;;;1.90;;
4049;SDS011;2039;50.894;6.888;2024-03-02T06:16:30;14.65;;;1.42;;
4049;SDS011;2039;50.894;6.888;2024-03-02T06:18:57;14.63;;;1.55;;
4049;SDS011;2039;50.894;6.888;2024-03-02T06:21:28;15.57;;;1.70;;
4049;SDS011;2039;50.894;6.888;2024-03-02T06:23:53;17.27;;;1.85;;
4049;SDS011;2039;50.894;6.888;2024-03-02T06:26:19;14.10;;;1.80;;
4049;SDS011;2039;50.894;6.888;2024-03-02T06:28:45;17.65;;;2.53;;
4049;SDS011;2039;50.894;6.888;2024-03-02T06:31:11;14.70;;;1.80;;
4049;SDS011;2039;50.894;6.888;2024-03-02T06:33:37;14.97;;;2.00;;
4049;SDS011;2039;50.894;6.888;2024-03-02T06:36:03;15.03;;;1.67;;
4049;SDS011;2039;50.894;6.888;2024-03-02T06:38:29;15.68;;;1.75;;
4049;SDS011;2039;50.894;6.888;2024-03-02T06:40:57;13.90;;;1.50;;
4049;SDS011;2039;50.894;6.888;2024-03-02T06:43:23;13.80;;;1.50;;
4049;SDS011;2039;50.894;6.888;2024-03-02T06:45:49;17.47;;;1.80;;
4049;SDS011;2039;50.894;6.888;2024-03-02T06:48:15;14.55;;;1.60;;
4049;SDS011;2039;50.894;6.888;2024-03-02T06:50:45;15.20;;;2.13;;
4049;SDS011;2039;50.894;6.888;2024-03-02T06:53:11;14.82;;;1.88;;
4049;SDS011;2039;50.894;6.888;2024-03-02T06:55:37;14.20;;;1.77;;
4049;SDS011;2039;50.894;6.888;2024-03-02T06:58:03;14.80;;;1.90;;
4049;SDS011;2039;50.894;6.888;2024-03-02T07:00:29;16.52;;;2.10;;
4049;SDS011;2039;50.894;6.888;2024-03-02T07:02:55;14.43;;;1.83;;
4049;SDS011;2039;50.894;6.888;2024-03-02T07:05:21;17.20;;;1.70;;
4049;SDS011;2039;50.894;6.888;2024-03-02T07:07:46;15.00;;;1.90;;
4049;SDS011;2039;50.894;6.888;2024-03-02T07:10:12;17.07;;;1.60;;
4049;SDS011;2039;50.894;6.888;2024-03-02T07:12:38;16.83;;;2.27;;
4049;SDS011;2039;50.894;6.888;2024-03-02T07:15:03;14.80;;;1.90;;
4049;SDS011;2039;50.894;6.888;2024-03-02T07:17:32;17.38;;;2.25;;
4049;SDS011;2039;50.894;6.888;2024-03-02T07:19:58;14.75;;;1.60;;
4049;SDS011;2039;50.894;6.888;2024-03-02T07:22:24;14.98;;;1.85;;
4049;SDS011;2039;50.894;6.888;2024-03-02T07:24:50;15.03;;;1.50;;
4049;SDS011;2039;50.894;6.888;2024-03-02T07:27:17;15.23;;;2.42;;
4049;SDS011;2039;50.894;6.888;2024-03-02T07:29:43;14.47;;;2.40;;
4049;SDS011;2039;50.894;6.888;2024-03-02T07:32:09;15.40;;;1.92;;
4049;SDS011;2039;50.894;6.888;2024-03-02T07:34:35;15.95;;;2.33;;
4049;SDS011;2039;50.894;6.888;2024-03-02T07:37:02;15.98;;;1.90;;
4049;SDS011;2039;50.894;6.888;2024-03-02T07:39:28;15.18;;;2.30;;
4049;SDS011;2039;50.894;6.888;2024-03-02T07:41:55;15.20;;;2.30;;
4049;SDS011;2039;50.894;6.888;2024-03-02T07:44:20;16.13;;;2.53;;
4049;SDS011;2039;50.894;6.888;2024-03-02T07:46:46;15.40;;;2.60;;
4049;SDS011;2039;50.894;6.888;2024-03-02T07:49:12;15.45;;;2.45;;
4049;SDS011;2039;50.894;6.888;2024-03-02T07:51:41;14.90;;;2.40;;
4049;SDS011;2039;50.894;6.888;2024-03-02T07:54:07;15.48;;;1.90;;
4049;SDS011;2039;50.894;6.888;2024-03-02T07:56:33;17.57;;;2.27;;
4049;SDS011;2039;50.894;6.888;2024-03-02T07:59:00;14.23;;;2.00;;
4049;SDS011;2039;50.894;6.888;2024-03-02T08:01:27;15.80;;;2.08;;
4049;SDS011;2039;50.894;6.888;2024-03-02T08:03:55;14.50;;;1.75;;
4049;SDS011;2039;50.894;6.888;2024-03-02T08:06:24;15.15;;;2.10;;
4049;SDS011;2039;50.894;6.888;2024-03-02T08:08:54;16.10;;;2.00;;
4049;SDS011;2039;50.894;6.888;2024-03-02T08:11:20;14.20;;;1.83;;
4049;SDS011;2039;50.894;6.888;2024-03-02T08:13:46;15.00;;;1.90;;
4049;SDS011;2039;50.894;6.888;2024-03-02T08:16:12;15.02;;;2.15;;
4049;SDS011;2039;50.894;6.888;2024-03-02T08:18:39;17.13;;;2.05;;
4049;SDS011;2039;50.894;6.888;2024-03-02T08:21:05;16.03;;;2.10;;
4049;SDS011;2039;50.894;6.888;2024-03-02T08:23:32;15.75;;;2.03;;
4049;SDS011;2039;50.894;6.888;2024-03-02T08:25:59;19.35;;;1.90;;
4049;SDS011;2039;50.894;6.888;2024-03-02T08:28:25;16.30;;;1.67;;
4049;SDS011;2039;50.894;6.888;2024-03-02T08:30:50;16.13;;;2.10;;
4049;SDS011;2039;50.894;6.888;2024-03-02T08:33:16;14.60;;;1.70;;
4049;SDS011;2039;50.894;6.888;2024-03-02T08:35:41;18.70;;;2.73;;
4049;SDS011;2039;50.894;6.888;2024-03-02T08:38:07;17.03;;;2.13;;
4049;SDS011;2039;50.894;6.888;2024-03-02T08:40:33;17.60;;;2.40;;
4049;SDS011;2039;50.894;6.888;2024-03-02T08:42:59;17.80;;;1.80;;
4049;SDS011;2039;50.894;6.888;2024-03-02T08:45:25;14.37;;;1.73;;
4049;SDS011;2039;50.894;6.888;2024-03-02T08:47:51;14.90;;;1.70;;
4049;SDS011;2039;50.894;6.888;2024-03-02T08:50:16;17.80;;;1.80;;
4049;SDS011;2039;50.894;6.888;2024-03-02T08:52:42;18.00;;;1.97;;
4049;SDS011;2039;50.894;6.888;2024-03-02T08:55:08;14.60;;;1.63;;
4049;SDS011;2039;50.894;6.888;2024-03-02T08:57:34;15.95;;;1.55;;
4049;SDS011;2039;50.894;6.888;2024-03-02T09:00:00;15.57;;;1.73;;
4049;SDS011;2039;50.894;6.888;2024-03-02T09:02:26;14.87;;;1.93;;
4049;SDS011;2039;50.894;6.888;2024-03-02T09:04:52;15.47;;;1.77;;
4049;SDS011;2039;50.894;6.888;2024-03-02T09:07:18;15.90;;;1.57;;
4049;SDS011;2039;50.894;6.888;2024-03-02T09:09:43;15.53;;;1.30;;
4049;SDS011;2039;50.894;6.888;2024-03-02T09:12:09;15.57;;;1.40;;
4049;SDS011;2039;50.894;6.888;2024-03-02T09:14:36;14.40;;;1.52;;
4049;SDS011;2039;50.894;6.888;2024-03-02T09:17:02;15.10;;;1.50;;
4049;SDS011;2039;50.894;6.888;2024-03-02T09:19:28;14.30;;;1.70;;
4049;SDS011;2039;50.894;6.888;2024-03-02T09:21:55;15.75;;;1.30;;
4049;SDS011;2039;50.894;6.888;2024-03-02T09:24:21;14.87;;;1.37;;
4049;SDS011;2039;50.894;6.888;2024-03-02T09:26:47;13.65;;;1.35;;
4049;SDS011;2039;50.894;6.888;2024-03-02T09:29:13;14.80;;;1.60;;
4049;SDS011;2039;50.894;6.888;2024-03-02T09:31:40;14.30;;;1.33;;
4049;SDS011;2039;50.894;6.888;2024-03-02T09:34:06;14.05;;;1.38;;
4049;SDS011;2039;50.894;6.888;2024-03-02T09:36:32;14.80;;;1.30;;
4049;SDS011;2039;50.894;6.888;2024-03-02T09:38:58;14.17;;;1.30;;
4049;SDS011;2039;50.894;6.888;2024-03-02T09:41:23;15.03;;;1.83;;
4049;SDS011;2039;50.894;6.888;2024-03-02T09:43:49;14.45;;;1.67;;
4049;SDS011;2039;50.894;6.888;2024-03-02T09:46:16;14.90;;;1.40;;
4049;SDS011;2039;50.894;6.888;2024-03-02T09:48:43;13.80;;;1.45;;
4049;SDS011;2039;50.894;6.888;2024-03-02T09:51:09;14.85;;;1.48;;
4049;SDS011;2039;50.894;6.888;2024-03-02T09:53:36;15.27;;;1.67;;
4049;SDS011;2039;50.894;6.888;2024-03-02T09:56:02;18.30;;;1.70;;
4049;SDS011;2039;50.894;6.888;2024-03-02T09:58:32;15.50;;;1.55;;
4049;SDS011;2039;50.894;6.888;2024-03-02T10:00:58;13.77;;;1.30;;
4049;SDS011;2039;50.894;6.888;2024-03-02T10:03:24;14.33;;;1.60;;
4049;SDS011;2039;50.894;6.888;2024-03-02T10:05:49;14.33;;;1.57;;
4049;SDS011;2039;50.894;6.888;2024-03-02T10:08:16;20.80;;;1.85;;
4049;SDS011;2039;50.894;6.888;2024-03-02T10:10:43;13.75;;;1.42;;
4049;SDS011;2039;50.894;6.888;2024-03-02T10:13:10;13.63;;;1.10;;
4049;SDS011;2039;50.894;6.888;2024-03-02T10:15:37;14.30;;;1.73;;
4049;SDS011;2039;50.894;6.888;2024-03-02T10:18:05;15.32;;;1.80;;
4049;SDS011;2039;50.894;6.888;2024-03-02T10:20:35;15.18;;;1.45;;
4049;SDS011;2039;50.894;6.888;2024-03-02T10:23:11;19.40;;;2.10;;
4049;SDS011;2039;50.894;6.888;2024-03-02T10:25:41;15.40;;;2.22;;
4049;SDS011;2039;50.894;6.888;2024-03-02T10:28:08;15.40;;;1.90;;
4049;SDS011;2039;50.894;6.888;2024-03-02T10:30:34;14.90;;;1.57;;
4049;SDS011;2039;50.894;6.888;2024-03-02T10:33:01;14.77;;;1.65;;
4049;SDS011;2039;50.894;6.888;2024-03-02T10:35:27;14.32;;;1.50;;
4049;SDS011;2039;50.894;6.888;2024-03-02T10:37:54;15.65;;;2.08;;
4049;SDS011;2039;50.894;6.888;2024-03-02T10:40:23;14.13;;;1.48;;
4049;SDS011;2039;50.894;6.888;2024-03-02T10:42:49;14.93;;;1.77;;
4049;SDS011;2039;50.894;6.888;2024-03-02T10:45:19;16.70;;;1.67;;
4049;SDS011;2039;50.894;6.888;2024-03-02T10:47:48;18.77;;;1.65;;
4049;SDS011;2039;50.894;6.888;2024-03-02T10:50:15;14.55;;;1.60;;
4049;SDS011;2039;50.894;6.888;2024-03-02T10:52:41;15.33;;;1.87;;
4049;SDS011;2039;50.894;6.888;2024-03-02T10:55:07;14.88;;;1.83;;
4049;SDS011;2039;50.894;6.888;2024-03-02T10:57:40;14.65;;;1.20;;
4049;SDS011;2039;50.894;6.888;2024-03-02T11:00:21;14.65;;;1.65;;
4049;SDS011;2039;50.894;6.888;2024-03-02T11:02:56;13.77;;;1.38;;
4049;SDS011;2039;50.894;6.888;2024-03-02T11:05:26;14.50;;;1.90;;
4049;SDS011;2039;50.894;6.888;2024-03-02T11:08:00;14.20;;;1.42;;
4049;SDS011;2039;50.894;6.888;2024-03-02T11:10:34;15.05;;;1.95;;
4049;SDS011;2039;50.894;6.888;2024-03-02T11:13:05;14.55;;;1.35;;
4049;SDS011;2039;50.894;6.888;2024-03-02T11:15:34;14.10;;;1.70;;
4049;SDS011;2039;50.894;6.888;2024-03-02T11:18:04;15.25;;;1.55;;
4049;SDS011;2039;50.894;6.888;2024-03-02T11:20:34;16.17;;;1.85;;
4049;SDS011;2039;50.894;6.888;2024-03-02T11:23:05;16.20;;;1.60;;
4049;SDS011;2039;50.894;6.888;2024-03-02T11:25:35;16.05;;;1.40;;
4049;SDS011;2039;50.894;6.888;2024-03-02T11:28:05;15.05;;;1.55;;
4049;SDS011;2039;50.894;6.888;2024-03-02T11:32:58;15.77;;;1.43;;
4049;SDS011;2039;50.894;6.888;2024-03-02T11:35:42;14.15;;;1.60;;
4049;SDS011;2039;50.894;6.888;2024-03-02T11:38:17;14.25;;;1.70;;
4049;SDS011;2039;50.894;6.888;2024-03-02T11:40:44;16.23;;;2.10;;
4049;SDS011;2039;50.894;6.888;2024-03-02T11:43:09;14.80;;;1.50;;
4049;SDS011;2039;50.894;6.888;2024-03-02T11:45:36;13.60;;;1.23;;
4049;SDS011;2039;50.894;6.888;2024-03-02T11:48:08;13.80;;;1.38;;
4049;SDS011;2039;50.894;6.888;2024-03-02T11:50:41;14.33;;;1.30;;
4049;SDS011;2039;50.894;6.888;2024-03-02T11:53:08;13.97;;;1.40;;
4049;SDS011;2039;50.894;6.888;2024-03-02T11:55:35;20.90;;;1.80;;
4049;SDS011;2039;50.894;6.888;2024-03-02T11:58:03;13.70;;;1.40;;
4049;SDS011;2039;50.894;6.888;2024-03-02T12:00:29;14.40;;;1.50;;
4049;SDS011;2039;50.894;6.888;2024-03-02T12:03:01;14.03;;;1.33;;
4049;SDS011;2039;50.894;6.888;2024-03-02T12:05:29;15.77;;;1.50;;
4049;SDS011;2039;50.894;6.888;2024-03-02T12:07:56;14.93;;;1.67;;
4049;SDS011;2039;50.894;6.888;2024-03-02T12:10:23;15.20;;;1.77;;
4049;SDS011;2039;50.894;6.888;2024-03-02T12:12:54;14.17;;;1.43;;
4049;SDS011;2039;50.894;6.888;2024-03-02T12:15:28;18.23;;;1.30;;
4049;SDS011;2039;50.894;6.888;2024-03-02T12:17:56;14.20;;;1.30;;
4049;SDS011;2039;50.894;6.888;2024-03-02T12:20:27;14.00;;;1.30;;
4049;SDS011;2039;50.894;6.888;2024-03-02T12:22:54;14.33;;;1.27;;
4049;SDS011;2039;50.894;6.888;2024-03-02T12:25:23;14.37;;;1.50;;
4049;SDS011;2039;50.894;6.888;2024-03-02T12:27:50;19.40;;;1.50;;
4049;SDS011;2039;50.894;6.888;2024-03-02T12:30:18;13.70;;;1.30;;
4049;SDS011;2039;50.894;6.888;2024-03-02T12:32:45;15.70;;;1.27;;
4049;SDS011;2039;50.894;6.888;2024-03-02T12:35:11;14.87;;;1.33;;
4049;SDS011;2039;50.894;6.888;2024-03-02T12:37:49;14.07;;;1.40;;
4049;SDS011;2039;50.894;6.888;2024-03-02T12:40:17;14.97;;;1.50;;
4049;SDS011;2039;50.894;6.888;2024-03-02T12:42:44;13.83;;;1.50;;
4049;SDS011;2039;50.894;6.888;2024-03-02T12:45:13;14.33;;;1.47;;
4049;SDS011;2039;50.894;6.888;2024-03-02T12:47:40;13.80;;;1.30;;
4049;SDS011;2039;50.894;6.888;2024-03-02T12:50:07;15.30;;;1.40;;
4049;SDS011;2039;50.894;6.888;2024-03-02T12:52:33;15.30;;;1.53;;
4049;SDS011;2039;50.894;6.888;2024-03-02T12:55:03;13.70;;;1.23;;
4049;SDS011;2039;50.894;6.888;2024-03-02T12:57:30;15.20;;;1.53;;
4049;SDS011;2039;50.894;6.888;2024-03-02T12:59:58;14.90;;;1.40;;
4049;SDS011;2039;50.894;6.888;2024-03-02T13:02:27;14.00;;;1.27;;
4049;SDS011;2039;50.894;6.888;2024-03-02T13:04:54;15.90;;;1.67;;
4049;SDS011;2039;50.894;6.888;2024-03-02T13:07:20;13.63;;;1.10;;
4049;SDS011;2039;50.894;6.888;2024-03-02T13:09:48;14.83;;;1.50;;
4049;SDS011;2039;50.894;6.888;2024-03-02T13:12:15;15.10;;;1.70;;
4049;SDS011;2039;50.894;6.888;2024-03-02T13:14:41;13.97;;;1.30;;
4049;SDS011;2039;50.894;6.888;2024-03-02T13:17:08;13.80;;;1.40;;
4049;SDS011;2039;50.894;6.888;2024-03-02T13:19:34;13.80;;;1.30;;
4049;SDS011;2039;50.894;6.888;2024-03-02T13:22:00;16.03;;;1.53;;
4049;SDS011;2039;50.894;6.888;2024-03-02T13:24:28;13.93;;;1.53;;
4049;SDS011;2039;50.894;6.888;2024-03-02T13:26:55;13.80;;;1.27;;
4049;SDS011;2039;50.894;6.888;2024-03-02T13:29:23;14.57;;;1.47;;
4049;SDS011;2039;50.894;6.888;2024-03-02T13:31:49;14.30;;;1.40;;
4049;SDS011;2039;50.894;6.888;2024-03-02T13:34:15;13.47;;;1.20;;
4049;SDS011;2039;50.894;6.888;2024-03-02T13:36:41;14.60;;;1.40;;
4049;SDS011;2039;50.894;6.888;2024-03-02T13:39:06;13.73;;;1.20;;
4049;SDS011;2039;50.894;6.888;2024-03-02T13:41:35;13.80;;;1.20;;
4049;SDS011;2039;50.894;6.888;2024-03-02T13:44:01;15.40;;;0.90;;
4049;SDS011;2039;50.894;6.888;2024-03-02T13:46:27;25.67;;;2.10;;
4049;SDS011;2039;50.894;6.888;2024-03-02T13:48:53;21.40;;;1.73;;
4049;SDS011;2039;50.894;6.888;2024-03-02T13:51:19;13.10;;;1.07;;
4049;SDS011;2039;50.894;6.888;2024-03-02T13:53:46;15.27;;;1.47;;
4049;SDS011;2039;50.894;6.888;2024-03-02T13:56:11;14.68;;;1.30;;
4049;SDS011;2039;50.894;6.888;2024-03-02T13:58:37;13.80;;;1.40;;
4049;SDS011;2039;50.894;6.888;2024-03-02T14:01:03;14.50;;;1.57;;
4049;SDS011;2039;50.894;6.888;2024-03-02T14:03:30;14.73;;;1.40;;
4049;SDS011;2039;50.894;6.888;2024-03-02T14:05:56;15.80;;;1.83;;
4049;SDS011;2039;50.894;6.888;2024-03-02T14:08:24;14.00;;;1.40;;
4049;SDS011;2039;50.894;6.888;2024-03-02T14:10:50;14.00;;;1.00;;
4049;SDS011;2039;50.894;6.888;2024-03-02T14:13:16;15.93;;;1.50;;
4049;SDS011;2039;50.894;6.888;2024-03-02T14:15:41;13.73;;;1.40;;
4049;SDS011;2039;50.894;6.888;2024-03-02T14:18:07;14.00;;;1.27;;
4049;SDS011;2039;50.894;6.888;2024-03-02T14:20:35;16.80;;;1.20;;
4049;SDS011;2039;50.894;6.888;2024-03-02T14:23:01;15.73;;;1.80;;
4049;SDS011;2039;50.894;6.888;2024-03-02T14:25:28;13.77;;;1.40;;
4049;SDS011;2039;50.894;6.888;2024-03-02T14:27:56;14.90;;;1.50;;
4049;SDS011;2039;50.894;6.888;2024-03-02T14:30:23;13.60;;;1.20;;
4049;SDS011;2039;50.894;6.888;2024-03-02T14:32:49;13.83;;;1.10;;
4049;SDS011;2039;50.894;6.888;2024-03-02T14:35:14;20.33;;;1.20;;
4049;SDS011;2039;50.894;6.888;2024-03-02T14:37:40;13.30;;;1.10;;
4049;SDS011;2039;50.894;6.888;2024-03-02T14:40:06;13.37;;;1.10;;
4049;SDS011;2039;50.894;6.888;2024-03-02T14:42:34;14.63;;;1.90;;
4049;SDS011;2039;50.894;6.888;2024-03-02T14:45:01;14.20;;;1.60;;
4049;SDS011;2039;50.894;6.888;2024-03-02T14:47:29;13.67;;;1.50;;
4049;SDS011;2039;50.894;6.888;2024-03-02T14:50:01;13.57;;;1.30;;
4049;SDS011;2039;50.894;6.888;2024-03-02T14:52:31;14.30;;;1.37;;
4049;SDS011;2039;50.894;6.888;2024-03-02T14:54:57;13.40;;;1.30;;
4049;SDS011;2039;50.894;6.888;2024-03-02T14:57:23;15.10;;;1.20;;
4049;SDS011;2039;50.894;6.888;2024-03-02T14:59:49;14.40;;;1.60;;
4049;SDS011;2039;50.894;6.888;2024-03-02T15:02:14;14.97;;;1.40;;
4049;SDS011;2039;50.894;6.888;2024-03-02T15:04:40;15.30;;;1.30;;